createdAt,value
2018-11-03T00:01:09.901Z,101178.38
2018-11-03T00:03:38.847Z,101170.83
2018-11-03T00:06:07.904Z,101172.42
2018-11-03T00:08:36.822Z,101177.47
2018-11-03T00:11:06.004Z,101181.52
2018-11-03T00:13:35.305Z,101185.53
2018-11-03T00:16:04.388Z,101186.07
2018-11-03T00:18:33.360Z,101180.98
2018-11-03T00:21:02.399Z,101194.86
2018-11-03T00:23:31.416Z,101193.94
2018-11-03T00:26:00.326Z,101188.37
2018-11-03T00:28:29.448Z,101184.66
2018-11-03T00:30:58.447Z,101183.81
2018-11-03T00:33:27.383Z,101181.64
2018-11-03T00:35:56.344Z,101185.42
2018-11-03T00:38:25.288Z,101181.33
2018-11-03T00:40:54.236Z,101181.52
2018-11-03T00:43:23.230Z,101182.37
2018-11-03T00:45:52.239Z,101187.22
2018-11-03T00:48:21.268Z,101184.34
2018-11-03T00:50:50.289Z,101179.53
2018-11-03T00:53:19.256Z,101184.80
2018-11-03T00:55:48.194Z,101175.32
2018-11-03T00:58:17.141Z,101174.62
2018-11-03T01:00:46.174Z,101179.53
2018-11-03T01:03:15.099Z,101176.02
2018-11-03T01:06:11.671Z,101179.36
2018-11-03T01:08:47.381Z,101171.63
2018-11-03T01:11:16.365Z,101176.98
2018-11-03T01:13:45.429Z,101175.78
2018-11-03T01:16:14.404Z,101177.64
2018-11-03T01:18:43.659Z,101179.16
2018-11-03T01:21:12.635Z,101188.81
2018-11-03T01:23:41.590Z,101178.26
2018-11-03T01:26:10.496Z,101183.55
2018-11-03T01:28:39.615Z,101180.53
2018-11-03T01:31:08.625Z,101178.97
2018-11-03T01:33:37.802Z,101180.00
2018-11-03T01:36:06.871Z,101185.11
2018-11-03T01:38:36.063Z,101174.20
2018-11-03T01:41:04.997Z,101179.82
2018-11-03T01:43:33.983Z,101175.99
2018-11-03T01:46:02.953Z,101169.70
2018-11-03T01:48:31.997Z,101164.84
2018-11-03T01:51:00.967Z,101162.67
2018-11-03T01:53:29.939Z,101164.54
2018-11-03T01:55:58.947Z,101163.03
2018-11-03T01:58:27.937Z,101163.78
2018-11-03T02:00:57.231Z,101158.75
2018-11-03T02:03:26.249Z,101161.47
2018-11-03T02:05:55.273Z,101161.21
2018-11-03T02:08:24.248Z,101152.97
2018-11-03T02:10:53.197Z,101152.30
2018-11-03T02:13:22.158Z,101154.97
2018-11-03T02:15:51.924Z,101161.70
2018-11-03T02:18:20.896Z,101163.61
2018-11-03T02:20:50.015Z,101161.61
2018-11-03T02:23:18.966Z,101163.30
2018-11-03T02:25:48.093Z,101155.68
2018-11-03T02:28:17.109Z,101158.34
2018-11-03T02:30:46.131Z,101161.64
2018-11-03T02:33:15.071Z,101157.49
2018-11-03T02:35:44.094Z,101161.77
2018-11-03T02:38:13.056Z,101161.73
2018-11-03T02:40:42.179Z,101171.88
2018-11-03T02:43:11.460Z,101173.16
2018-11-03T02:45:40.416Z,101167.81
2018-11-03T02:48:09.394Z,101176.25
2018-11-03T02:50:38.392Z,101183.89
2018-11-03T02:53:07.595Z,101188.02
2018-11-03T02:55:36.609Z,101185.70
2018-11-03T02:58:06.186Z,101192.42
2018-11-03T03:00:35.209Z,101194.61
2018-11-03T03:03:04.263Z,101189.58
2018-11-03T03:05:33.216Z,101186.96
2018-11-03T03:08:02.380Z,101182.95
2018-11-03T03:10:31.339Z,101180.87
2018-11-03T03:13:00.365Z,101185.32
2018-11-03T03:15:29.333Z,101191.77
2018-11-03T03:17:58.269Z,101197.64
2018-11-03T03:20:27.231Z,101194.89
2018-11-03T03:22:56.358Z,101201.05
2018-11-03T03:25:25.289Z,101208.20
2018-11-03T03:27:54.264Z,101210.56
2018-11-03T03:30:23.283Z,101213.96
2018-11-03T03:32:52.359Z,101215.78
2018-11-03T03:35:21.300Z,101213.69
2018-11-03T03:37:50.272Z,101219.78
2018-11-03T03:40:19.222Z,101225.08
2018-11-03T03:42:48.397Z,101228.72
2018-11-03T03:45:17.352Z,101239.18
2018-11-03T03:47:46.295Z,101248.00
2018-11-03T03:50:15.246Z,101246.44
2018-11-03T03:52:44.239Z,101244.09
2018-11-03T03:55:13.313Z,101245.73
2018-11-03T03:57:42.254Z,101240.17
2018-11-03T04:00:12.245Z,101248.73
2018-11-03T04:02:41.655Z,101244.77
2018-11-03T04:05:10.846Z,101242.98
2018-11-03T04:07:39.929Z,101243.80
2018-11-03T04:10:09.596Z,101244.91
2018-11-03T04:12:38.527Z,101244.42
2018-11-03T04:15:07.634Z,101247.09
2018-11-03T04:17:36.705Z,101244.12
2018-11-03T04:20:06.547Z,101238.65
2018-11-03T04:22:35.601Z,101251.42
2018-11-03T04:25:04.992Z,101248.88
2018-11-03T04:27:34.243Z,101254.30
2018-11-03T04:30:03.761Z,101244.95
2018-11-03T04:32:32.746Z,101249.28
2018-11-03T04:35:01.744Z,101253.82
2018-11-03T04:37:30.729Z,101258.01
2018-11-03T04:39:59.664Z,101257.34
2018-11-03T04:42:28.614Z,101260.59
2018-11-03T04:44:57.583Z,101264.37
2018-11-03T04:47:26.617Z,101269.05
2018-11-03T04:49:55.613Z,101270.96
2018-11-03T04:52:24.797Z,101267.76
2018-11-03T04:54:53.831Z,101270.44
2018-11-03T04:57:22.799Z,101275.73
2018-11-03T04:59:51.723Z,101279.83
2018-11-03T05:02:20.659Z,101277.11
2018-11-03T05:04:49.614Z,101287.49
2018-11-03T05:07:18.791Z,101288.83
2018-11-03T05:09:47.867Z,101291.58
2018-11-03T05:12:16.908Z,101294.80
2018-11-03T05:14:45.946Z,101290.66
2018-11-03T05:17:15.039Z,101288.75
2018-11-03T05:19:44.016Z,101294.14
2018-11-03T05:22:12.955Z,101295.30
2018-11-03T05:24:42.004Z,101299.08
2018-11-03T05:27:11.085Z,101301.00
2018-11-03T05:29:40.016Z,101302.66
2018-11-03T05:32:09.019Z,101298.28
2018-11-03T05:34:38.112Z,101303.41
2018-11-03T05:37:07.217Z,101309.06
2018-11-03T05:39:36.228Z,101311.59
2018-11-03T05:42:05.891Z,101319.84
2018-11-03T05:44:34.894Z,101320.16
2018-11-03T05:47:03.980Z,101320.41
2018-11-03T05:49:33.014Z,101322.28
2018-11-03T05:52:01.989Z,101312.30
2018-11-03T05:54:31.203Z,101310.12
2018-11-03T05:57:00.182Z,101313.77
2018-11-03T05:59:29.912Z,101305.79
2018-11-03T06:01:58.980Z,101313.39
2018-11-03T06:04:27.987Z,101314.73
2018-11-03T06:06:57.285Z,101311.31
2018-11-03T06:09:26.437Z,101302.44
2018-11-03T06:11:55.510Z,101309.23
2018-11-03T06:14:24.553Z,101303.36
2018-11-03T06:16:53.504Z,101306.20
2018-11-03T06:19:23.764Z,101304.77
2018-11-03T06:21:53.262Z,101305.30
2018-11-03T06:24:22.375Z,101307.91
2018-11-03T06:26:51.402Z,101315.45
2018-11-03T06:29:20.407Z,101326.66
2018-11-03T06:31:49.373Z,101324.20
2018-11-03T06:34:18.498Z,101330.08
2018-11-03T06:36:47.435Z,101331.36
2018-11-03T06:39:16.465Z,101340.59
2018-11-03T06:41:45.465Z,101345.47
2018-11-03T06:44:14.518Z,101348.61
2018-11-03T06:46:43.540Z,101341.70
2018-11-03T06:49:18.005Z,101349.52
2018-11-03T06:51:47.268Z,101340.59
2018-11-03T06:54:16.261Z,101339.19
2018-11-03T06:56:45.283Z,101336.59
2018-11-03T06:59:14.438Z,101336.70
2018-11-03T07:01:43.361Z,101335.23
2018-11-03T07:04:13.023Z,101341.70
2018-11-03T07:06:41.967Z,101340.20
2018-11-03T07:09:12.280Z,101348.35
2018-11-03T07:11:41.501Z,101345.39
2018-11-03T07:14:10.894Z,101347.22
2018-11-03T07:16:39.927Z,101356.58
2018-11-03T07:19:08.881Z,101351.19
2018-11-03T07:21:38.969Z,101352.95
2018-11-03T07:24:08.340Z,101353.42
2018-11-03T07:26:37.592Z,101352.35
2018-11-03T07:29:06.957Z,101348.91
2018-11-03T07:31:36.137Z,101343.20
2018-11-03T07:34:06.102Z,101352.50
2018-11-03T07:36:35.853Z,101353.34
2018-11-03T07:39:07.103Z,101355.25
2018-11-03T07:41:36.246Z,101353.20
2018-11-03T07:44:06.316Z,101346.19
2018-11-03T07:46:35.272Z,101343.83
2018-11-03T07:49:04.537Z,101338.93
2018-11-03T07:51:33.406Z,101338.39
2018-11-03T07:54:04.210Z,101344.55
2018-11-03T07:56:33.130Z,101346.16
2018-11-03T07:59:02.131Z,101345.20
2018-11-03T08:01:32.016Z,101349.70
2018-11-03T08:04:00.969Z,101348.14
2018-11-03T08:06:29.988Z,101344.03
2018-11-03T08:09:05.670Z,101338.58
2018-11-03T08:11:34.640Z,101337.60
2018-11-03T08:14:03.618Z,101338.13
2018-11-03T08:16:32.672Z,101346.38
2018-11-03T08:19:01.899Z,101344.20
2018-11-03T08:21:31.008Z,101348.08
2018-11-03T08:24:00.115Z,101345.92
2018-11-03T08:26:29.116Z,101345.09
2018-11-03T08:28:58.161Z,101352.17
2018-11-03T08:31:27.195Z,101353.49
2018-11-03T08:33:56.143Z,101357.45
2018-11-03T08:36:25.075Z,101357.04
2018-11-03T08:38:54.704Z,101353.78
2018-11-03T08:41:23.734Z,101355.72
2018-11-03T08:43:52.688Z,101360.28
2018-11-03T08:46:21.679Z,101359.83
2018-11-03T08:48:50.692Z,101357.67
2018-11-03T08:51:19.641Z,101357.30
2018-11-03T08:53:48.623Z,101361.48
2018-11-03T08:56:17.554Z,101358.59
2018-11-03T08:58:46.496Z,101356.52
2018-11-03T09:01:15.463Z,101360.98
2018-11-03T09:03:44.413Z,101356.58
2018-11-03T09:06:13.367Z,101354.89
2018-11-03T09:08:42.347Z,101356.33
2018-11-03T09:11:11.311Z,101354.47
2018-11-03T09:13:40.297Z,101353.98
2018-11-03T09:16:09.399Z,101351.58
2018-11-03T09:18:38.351Z,101350.12
2018-11-03T09:21:07.327Z,101349.59
2018-11-03T09:23:36.283Z,101352.17
2018-11-03T09:26:05.301Z,101351.24
2018-11-03T09:28:34.242Z,101350.02
2018-11-03T09:31:03.216Z,101355.89
2018-11-03T09:33:32.326Z,101357.18
2018-11-03T09:36:01.317Z,101350.09
2018-11-03T09:38:30.319Z,101352.48
2018-11-03T09:40:59.205Z,101349.38
2018-11-03T09:43:28.235Z,101345.19
2018-11-03T09:45:57.158Z,101351.66
2018-11-03T09:48:26.973Z,101351.39
2018-11-03T09:50:57.792Z,101361.59
2018-11-03T09:53:27.035Z,101360.02
2018-11-03T09:55:56.055Z,101361.72
2018-11-03T09:58:25.029Z,101359.11
2018-11-03T10:00:54.017Z,101360.03
2018-11-03T10:03:22.986Z,101362.18
2018-11-03T10:05:51.956Z,101359.77
2018-11-03T10:08:20.898Z,101353.98
2018-11-03T10:10:49.908Z,101348.95
2018-11-03T10:13:18.879Z,101345.98
2018-11-03T10:15:48.157Z,101345.52
2018-11-03T10:18:17.053Z,101350.27
2018-11-03T10:20:46.037Z,101340.15
2018-11-03T10:23:15.168Z,101336.98
2018-11-03T10:25:44.139Z,101339.18
2018-11-03T10:28:13.153Z,101341.34
2018-11-03T10:30:42.128Z,101333.55
2018-11-03T10:33:11.093Z,101335.39
2018-11-03T10:35:40.075Z,101332.13
2018-11-03T10:38:09.071Z,101328.33
2018-11-03T10:40:38.062Z,101335.77
2018-11-03T10:43:07.034Z,101328.77
2018-11-03T10:45:36.099Z,101324.97
2018-11-03T10:48:05.349Z,101322.05
2018-11-03T10:50:34.306Z,101320.56
2018-11-03T10:53:03.319Z,101324.41
2018-11-03T10:55:32.274Z,101317.16
2018-11-03T10:58:01.310Z,101318.22
2018-11-03T11:00:35.680Z,101315.56
2018-11-03T11:03:10.196Z,101313.12
2018-11-03T11:05:43.678Z,101313.67
2018-11-03T11:08:18.064Z,101314.75
2018-11-03T11:10:52.406Z,101311.52
2018-11-03T11:13:23.792Z,101311.46
2018-11-03T11:15:54.610Z,101311.23
2018-11-03T11:18:23.662Z,101318.19
2018-11-03T11:20:52.730Z,101323.58
2018-11-03T11:23:21.889Z,101317.45
2018-11-03T11:25:50.811Z,101315.53
2018-11-03T11:28:19.815Z,101309.09
2018-11-03T11:30:48.836Z,101305.82
2018-11-03T11:33:18.139Z,101305.84
2018-11-03T11:35:47.189Z,101299.34
2018-11-03T11:38:16.491Z,101299.91
2018-11-03T11:40:45.464Z,101295.63
2018-11-03T11:43:14.963Z,101293.72
2018-11-03T11:45:43.865Z,101297.47
2018-11-03T11:48:12.828Z,101293.95
2018-11-03T11:50:41.824Z,101291.78
2018-11-03T11:53:10.846Z,101291.45
2018-11-03T11:55:39.920Z,101297.72
2018-11-03T11:58:08.898Z,101289.41
2018-11-03T12:00:37.936Z,101290.23
2018-11-03T12:03:06.845Z,101280.52
2018-11-03T12:05:35.827Z,101282.95
2018-11-03T12:08:05.104Z,101286.42
2018-11-03T12:10:34.061Z,101287.54
2018-11-03T12:13:03.081Z,101289.42
2018-11-03T12:15:32.108Z,101285.34
2018-11-03T12:18:01.561Z,101280.81
2018-11-03T12:20:30.773Z,101274.56
2018-11-03T12:23:00.084Z,101263.83
2018-11-03T12:25:29.207Z,101262.77
2018-11-03T12:27:58.236Z,101262.73
2018-11-03T12:30:27.286Z,101250.88
2018-11-03T12:32:56.303Z,101255.98
2018-11-03T12:35:25.291Z,101247.91
2018-11-03T12:37:54.291Z,101248.71
2018-11-03T12:40:23.260Z,101257.83
2018-11-03T12:42:52.226Z,101251.64
2018-11-03T12:45:21.406Z,101252.15
2018-11-03T12:47:50.535Z,101249.75
2018-11-03T12:50:19.677Z,101246.76
2018-11-03T12:52:48.687Z,101251.64
2018-11-03T12:55:17.678Z,101252.94
2018-11-03T12:57:46.678Z,101245.47
2018-11-03T13:00:16.354Z,101250.30
2018-11-03T13:02:46.184Z,101245.17
2018-11-03T13:05:15.345Z,101245.97
2018-11-03T13:07:45.196Z,101239.47
2018-11-03T13:10:14.231Z,101243.52
2018-11-03T13:12:43.613Z,101246.76
2018-11-03T13:15:13.503Z,101242.98
2018-11-03T13:17:42.518Z,101245.91
2018-11-03T13:20:13.690Z,101245.57
2018-11-03T13:22:43.329Z,101244.52
2018-11-03T13:25:12.638Z,101242.39
2018-11-03T13:27:42.274Z,101241.84
2018-11-03T13:30:13.218Z,101247.48
2018-11-03T13:32:42.314Z,101249.30
2018-11-03T13:35:12.611Z,101247.44
2018-11-03T13:37:41.896Z,101249.09
2018-11-03T13:40:12.291Z,101243.97
2018-11-03T13:42:41.551Z,101254.39
2018-11-03T13:45:10.837Z,101246.61
2018-11-03T13:47:40.156Z,101255.14
2018-11-03T13:50:11.426Z,101255.68
2018-11-03T13:52:41.528Z,101260.48
2018-11-03T13:55:10.823Z,101252.64
2018-11-03T13:57:40.584Z,101253.23
2018-11-03T14:00:11.774Z,101250.45
2018-11-03T14:02:41.823Z,101251.73
2018-11-03T14:05:11.421Z,101256.53
2018-11-03T14:07:40.523Z,101251.23
2018-11-03T14:10:12.058Z,101249.33
2018-11-03T14:12:41.767Z,101246.51
2018-11-03T14:15:12.450Z,101248.34
2018-11-03T14:17:41.567Z,101245.98
2018-11-03T14:20:13.770Z,101242.48
2018-11-03T14:22:44.507Z,101237.93
2018-11-03T14:25:16.950Z,101240.89
2018-11-03T14:27:47.379Z,101232.55
2018-11-03T14:30:17.090Z,101235.97
2018-11-03T14:32:47.972Z,101233.86
2018-11-03T14:35:16.906Z,101235.51
2018-11-03T14:37:46.257Z,101231.48
2018-11-03T14:40:16.350Z,101235.24
2018-11-03T14:42:46.088Z,101235.75
2018-11-03T14:45:15.908Z,101229.23
2018-11-03T14:47:45.037Z,101231.13
2018-11-03T14:50:14.032Z,101225.73
2018-11-03T14:52:43.787Z,101231.55
2018-11-03T14:55:13.391Z,101237.72
2018-11-03T14:57:42.317Z,101239.38
2018-11-03T15:00:14.146Z,101237.45
2018-11-03T15:02:43.153Z,101238.52
2018-11-03T15:05:12.608Z,101237.08
2018-11-03T15:07:41.538Z,101231.98
2018-11-03T15:10:11.559Z,101230.31
2018-11-03T15:12:41.377Z,101229.53
2018-11-03T15:15:11.981Z,101225.48
2018-11-03T15:17:40.908Z,101227.05
2018-11-03T15:20:10.910Z,101229.16
2018-11-03T15:22:40.160Z,101225.94
2018-11-03T15:25:09.536Z,101227.55
2018-11-03T15:27:38.625Z,101224.02
2018-11-03T15:30:09.234Z,101228.88
2018-11-03T15:32:38.327Z,101231.26
2018-11-03T15:35:07.558Z,101231.26
2018-11-03T15:37:36.481Z,101226.37
2018-11-03T15:40:07.347Z,101236.56
2018-11-03T15:42:36.341Z,101239.44
2018-11-03T15:45:06.698Z,101240.05
2018-11-03T15:47:35.704Z,101240.06
2018-11-03T15:50:05.671Z,101237.36
2018-11-03T15:52:34.632Z,101236.56
2018-11-03T15:55:04.017Z,101239.77
2018-11-03T15:57:37.938Z,101230.41
2018-11-03T16:00:09.791Z,101229.30
2018-11-03T16:02:38.735Z,101229.05
2018-11-03T16:05:08.019Z,101230.09
2018-11-03T16:07:37.075Z,101233.87
2018-11-03T16:10:07.199Z,101235.69
2018-11-03T16:12:36.284Z,101234.13
2018-11-03T16:15:05.660Z,101233.52
2018-11-03T16:17:34.713Z,101234.30
2018-11-03T16:20:03.639Z,101236.50
2018-11-03T16:22:32.696Z,101233.73
2018-11-03T16:25:01.739Z,101232.11
2018-11-03T16:27:30.727Z,101231.30
2018-11-03T16:30:00.059Z,101238.73
2018-11-03T16:32:29.141Z,101232.30
2018-11-03T16:34:58.163Z,101230.67
2018-11-03T16:37:27.199Z,101224.82
2018-11-03T16:39:56.164Z,101236.86
2018-11-03T16:42:25.180Z,101225.89
2018-11-03T16:44:54.351Z,101222.82
2018-11-03T16:47:45.487Z,101227.94
2018-11-03T16:50:15.518Z,101220.73
2018-11-03T16:52:44.692Z,101220.97
2018-11-03T16:55:14.405Z,101223.13
2018-11-03T16:57:43.419Z,101215.60
2018-11-03T17:00:13.833Z,101213.14
2018-11-03T17:02:43.146Z,101211.05
2018-11-03T17:05:13.376Z,101214.48
2018-11-03T17:07:42.494Z,101212.92
2018-11-03T17:10:13.568Z,101214.48
2018-11-03T17:12:43.943Z,101212.36
2018-11-03T17:15:14.148Z,101213.75
2018-11-03T17:17:43.506Z,101207.75
2018-11-03T17:20:13.088Z,101202.72
2018-11-03T17:22:42.322Z,101202.22
2018-11-03T17:25:12.344Z,101203.56
2018-11-03T17:27:41.440Z,101200.86
2018-11-03T17:30:12.832Z,101203.88
2018-11-03T17:32:42.275Z,101206.80
2018-11-03T17:35:11.722Z,101201.12
2018-11-03T17:37:41.183Z,101205.70
2018-11-03T17:40:11.446Z,101200.64
2018-11-03T17:42:43.173Z,101199.33
2018-11-03T17:45:16.322Z,101188.58
2018-11-03T17:47:46.196Z,101194.94
2018-11-03T17:50:16.814Z,101190.65
2018-11-03T17:52:45.989Z,101190.16
2018-11-03T17:55:16.631Z,101183.19
2018-11-03T17:57:47.517Z,101185.59
2018-11-03T18:00:18.327Z,101190.48
2018-11-03T18:02:47.626Z,101183.95
2018-11-03T18:05:17.769Z,101180.17
2018-11-03T18:07:48.206Z,101179.14
2018-11-03T18:10:17.308Z,101178.34
2018-11-03T18:12:47.175Z,101170.56
2018-11-03T18:15:16.373Z,101170.34
2018-11-03T18:17:48.446Z,101170.55
2018-11-03T18:20:19.509Z,101172.19
2018-11-03T18:22:48.662Z,101166.55
2018-11-03T18:25:17.728Z,101165.45
2018-11-03T18:27:46.953Z,101162.52
2018-11-03T18:30:16.057Z,101162.23
2018-11-03T18:32:45.192Z,101157.96
2018-11-03T18:35:14.360Z,101155.02
2018-11-03T18:37:43.547Z,101156.36
2018-11-03T18:40:12.589Z,101156.69
2018-11-03T18:42:41.729Z,101157.67
2018-11-03T18:45:11.054Z,101161.18
2018-11-03T18:47:40.330Z,101156.30
2018-11-03T18:50:11.314Z,101149.59
2018-11-03T18:52:40.676Z,101147.62
2018-11-03T18:55:10.896Z,101145.75
2018-11-03T18:57:41.242Z,101146.81
2018-11-03T19:00:11.341Z,101143.30
2018-11-03T19:02:41.092Z,101145.49
2018-11-03T19:05:10.382Z,101143.59
2018-11-03T19:07:39.489Z,101142.55
2018-11-03T19:10:09.242Z,101142.61
2018-11-03T19:12:38.328Z,101138.47
2018-11-03T19:15:08.126Z,101139.84
2018-11-03T19:17:37.231Z,101146.00
2018-11-03T19:20:07.868Z,101136.33
2018-11-03T19:22:36.828Z,101139.02
2018-11-03T19:25:07.443Z,101134.45
2018-11-03T19:27:36.394Z,101133.65
2018-11-03T19:30:07.080Z,101138.75
2018-11-03T19:32:36.072Z,101134.44
2018-11-03T19:35:05.625Z,101131.75
2018-11-03T19:37:34.643Z,101132.52
2018-11-03T19:40:04.227Z,101132.88
2018-11-03T19:42:33.250Z,101125.08
2018-11-03T19:45:02.340Z,101128.86
2018-11-03T19:47:31.386Z,101127.28
2018-11-03T19:50:00.526Z,101124.86
2018-11-03T19:52:29.605Z,101126.74
2018-11-03T19:54:58.540Z,101124.62
2018-11-03T19:57:27.535Z,101120.88
2018-11-03T19:59:56.485Z,101118.98
2018-11-03T20:02:25.730Z,101123.08
2018-11-03T20:04:54.613Z,101118.19
2018-11-03T20:07:23.581Z,101118.98
2018-11-03T20:09:52.777Z,101116.27
2018-11-03T20:12:21.876Z,101116.03
2018-11-03T20:14:50.983Z,101116.03
2018-11-03T20:17:19.905Z,101112.58
2018-11-03T20:19:48.898Z,101106.94
2018-11-03T20:22:17.856Z,101109.91
2018-11-03T20:24:46.865Z,101102.38
2018-11-03T20:27:15.827Z,101099.75
2018-11-03T20:29:44.767Z,101093.83
2018-11-03T20:32:13.979Z,101090.59
2018-11-03T20:34:42.910Z,101086.04
2018-11-03T20:37:11.907Z,101084.99
2018-11-03T20:39:40.856Z,101084.73
2018-11-03T20:42:09.798Z,101086.07
2018-11-03T20:44:38.763Z,101081.23
2018-11-03T20:47:07.706Z,101085.25
2018-11-03T20:49:36.660Z,101087.95
2018-11-03T20:52:06.031Z,101081.77
2018-11-03T20:54:35.028Z,101082.57
2018-11-03T20:57:03.949Z,101083.67
2018-11-03T20:59:32.989Z,101078.28
2018-11-03T21:02:02.001Z,101083.09
2018-11-03T21:05:34.022Z,101082.00
2018-11-03T21:08:03.040Z,101078.78
2018-11-03T21:10:31.980Z,101069.38
2018-11-03T21:13:00.946Z,101064.30
2018-11-03T21:15:29.923Z,101067.53
2018-11-03T21:17:58.886Z,101061.08
2018-11-03T21:20:27.969Z,101059.99
2018-11-03T21:22:56.930Z,101060.53
2018-11-03T21:25:25.891Z,101056.27
2018-11-03T21:27:54.828Z,101056.83
2018-11-03T21:30:23.811Z,101057.06
2018-11-03T21:32:52.847Z,101054.14
2018-11-03T21:35:21.669Z,101046.64
2018-11-03T21:37:50.609Z,101041.81
2018-11-03T21:40:19.544Z,101030.27
2018-11-03T21:42:48.538Z,101032.69
2018-11-03T21:45:17.485Z,101021.44
2018-11-03T21:47:46.410Z,101023.87
2018-11-03T21:50:15.410Z,101017.72
2018-11-03T21:52:44.378Z,101009.36
2018-11-03T21:55:13.455Z,101009.11
2018-11-03T21:57:42.415Z,101011.52
2018-11-03T22:00:12.258Z,101013.65
2018-11-03T22:02:41.710Z,101009.63
2018-11-03T22:05:12.344Z,101001.64
2018-11-03T22:07:41.725Z,101003.22
2018-11-03T22:10:11.027Z,100994.86
2018-11-03T22:12:41.242Z,100993.50
2018-11-03T22:15:10.282Z,100989.48
2018-11-03T22:17:39.238Z,100978.75
2018-11-03T22:20:09.389Z,100979.30
2018-11-03T22:22:38.551Z,100984.39
2018-11-03T22:25:08.478Z,100976.63
2018-11-03T22:27:37.910Z,100975.30
2018-11-03T22:30:08.503Z,100969.67
2018-11-03T22:32:37.470Z,100969.11
2018-11-03T22:35:06.733Z,100972.03
2018-11-03T22:37:35.811Z,100973.65
2018-11-03T22:40:05.438Z,100968.53
2018-11-03T22:42:34.379Z,100964.27
2018-11-03T22:45:03.369Z,100965.56
2018-11-03T22:47:32.406Z,100954.33
2018-11-03T22:50:02.103Z,100950.81
2018-11-03T22:52:31.564Z,100950.81
2018-11-03T22:55:01.229Z,100949.73
2018-11-03T22:57:30.647Z,100945.95
2018-11-03T23:03:22.460Z,100937.86
2018-11-03T23:05:51.679Z,100930.05
2018-11-03T23:08:21.423Z,100928.67
2018-11-03T23:10:50.407Z,100924.32
2018-11-03T23:13:19.366Z,100922.44
2018-11-03T23:15:48.534Z,100921.08
2018-11-03T23:18:17.476Z,100924.00
2018-11-03T23:20:46.462Z,100917.28
2018-11-03T23:23:15.435Z,100917.03
2018-11-03T23:25:45.266Z,100912.17
2018-11-03T23:28:14.230Z,100908.94
2018-11-03T23:30:43.234Z,100905.98
2018-11-03T23:33:12.205Z,100914.77
2018-11-03T23:35:41.234Z,100913.16
2018-11-03T23:38:10.246Z,100910.36
2018-11-03T23:40:39.167Z,100913.32
2018-11-03T23:43:08.107Z,100905.01
2018-11-03T23:45:37.039Z,100903.67
2018-11-03T23:48:06.010Z,100905.56
2018-11-03T23:50:35.089Z,100892.75
2018-11-03T23:53:04.186Z,100888.75
2018-11-03T23:55:33.063Z,100881.24
2018-11-03T23:58:02.109Z,100875.64
